• Join FlightAware (Why Join?)
  • Login
  • US Flag 
 
06:44AM EST


 

Airport Tracker/Info


-or-


 

Live Flight TrackerFlight Track Log ✈ DAL6115 ✈ 09-May-2013 ✈ KILM - KLGA

Flight Track Log - Related Links

Times and Time Zones

All times are in EDT time to prevent confusion due to time zone crossing. See the DAL6115 flight status page for this flight to view local times or setup timezone preferences in your user account.

Time Position Orientation Groundspeed Altitude Reporting Facility
EDT Latitude Longitude Course Direction KTS MPH feet Rate Location/Type
12:42PM 34.2817 -77.9797 North 145 167 4,600  Level Washington Center
12:43PM 34.5621 -77.8652 North  Level FlightAware Approximate
12:43PM 34.3486 -77.9642 11° North 154 177 7,100  Level Washington Center
12:44PM 34.6608 -77.8528 North  Level FlightAware Approximate
12:44PM 34.4197 -77.9586 North 202 232 9,700  Level Washington Center
12:45PM 34.7597 -77.8424 North  Level FlightAware Approximate
12:45PM 34.4992 -77.9483 North 254 292 11,000  Level Washington Center
12:46PM 34.8584 -77.8305 15° North  Level FlightAware Approximate
12:46PM 34.5892 -77.9331 North 298 343 12,500  Level Washington Center
12:47PM 34.9562 -77.8167 North  Level FlightAware Approximate
12:47PM 34.6814 -77.9181 North 321 369 14,300  Level Washington Center
12:48PM 34.7756 -77.9031 North 336 387 16,100 1,560 Climbing Washington Center
12:49PM 34.8697 -77.8881 North 336 387 17,500 1,380 Climbing Washington Center
12:50PM 34.9681 -77.8681 North 341 392 19,000 1,440 Climbing Washington Center
12:51PM 35.0686 -77.8506 North 353 406 20,500 960 Climbing Washington Center
12:52PM 35.1753 -77.8358 North 366 421 21,000 540 Climbing Washington Center
12:53PM 35.2842 -77.8158 North 380 437 21,600 960 Climbing Washington Center
12:54PM 35.3972 -77.7986 North 393 452 23,000 660 Climbing Washington Center
12:55PM 35.5100 -77.7814 North 399 459 23,000 360 Level Washington Center
12:56PM 35.6272 -77.7617 North 409 471 23,800 1,560 Climbing Washington Center
12:57PM 35.7383 -77.7442 North 409 471 26,100 2,220 Climbing Washington Center
12:58PM 35.8367 -77.7264 North 388 447 28,200 1,980 Climbing Washington Center
12:59PM 35.9328 -77.7108 North 362 417 30,200 1,860 Climbing Washington Center
01:00PM 36.0203 -77.7183 356° North 334 384 32,000 1,560 Climbing Washington Center
01:01PM 36.0989 -77.7667 334° Northwest 305 351 33,400 1,440 Climbing Washington Center
01:02PM 36.1839 -77.7950 345° North 305 351 34,900 780 Climbing Washington Center
01:03PM 36.2722 -77.7483 23° Northeast 303 349 35,000  Climbing Washington Center
01:04PM 36.3672 -77.6917 26° Northeast 334 384 35,000  Level Washington Center
01:05PM 36.4642 -77.6322 26° Northeast 362 417 35,000  Level Washington Center
01:06PM 36.5653 -77.5728 25° Northeast 378 435 35,000  Level Washington Center
01:07PM 36.6664 -77.5133 25° Northeast 389 448 35,000  Level Washington Center
01:08PM 36.7633 -77.4561 25° Northeast 389 448 35,000  Level Washington Center
01:09PM 36.8603 -77.3961 26° Northeast 384 442 35,000  Level Washington Center
01:10PM 36.9569 -77.3386 25° Northeast 384 442 35,000  Level Washington Center
01:11PM 37.0558 -77.2808 25° Northeast 384 442 35,000  Level Washington Center
01:12PM 37.1528 -77.2231 25° Northeast 384 442 35,000  Level Washington Center
01:13PM 37.2514 -77.1653 25° Northeast 384 442 35,000  Level Washington Center
01:14PM 37.3608 -77.0942 27° Northeast 389 448 35,000  Level Washington Center
01:15PM 37.4536 -77.0228 31° Northeast 389 448 35,000  Level Washington Center
01:16PM 37.5544 -76.9514 29° Northeast 403 464 35,000  Level Washington Center
01:17PM 37.6469 -76.8794 32° Northeast 403 464 35,000  Level Washington Center
01:18PM 37.7417 -76.8078 31° Northeast 403 464 35,000  Level Washington Center
01:19PM 37.8361 -76.7381 30° Northeast 398 458 35,000  Level Washington Center
01:20PM 37.9222 -76.6736 31° Northeast 398 458 35,000  Level Washington Center
01:21PM 38.0208 -76.6014 30° Northeast 404 465 35,000  Level Washington Center
01:22PM 38.1175 -76.5261 31° Northeast 404 465 35,000  Level Washington Center
01:23PM 38.2203 -76.4481 31° Northeast 410 472 35,000 -60 Level Washington Center
01:24PM 38.3228 -76.3672 32° Northeast 423 487 34,900 -840 Descending Washington Center
01:25PM 38.4194 -76.2781 36° Northeast 423 487 33,400 -1,500 Descending Washington Center
01:26PM 38.5158 -76.1886 36° Northeast 423 487 31,900 -1,560 Descending Washington Center
01:27PM 38.6161 -76.0939 36° Northeast 435 501 30,400 -1,560 Descending Washington Center
01:28PM 38.7167 -76.0067 34° Northeast 435 501 28,900 -1,500 Descending Washington Center
01:29PM 38.8169 -75.9114 37° Northeast 435 501 27,400 -960 Descending Washington Center
01:30PM 38.9172 -75.8158 37° Northeast 435 501 27,000 -240 Descending Washington Center
01:31PM 39.0175 -75.7225 36° Northeast 440 506 27,000  Level Washington Center
01:32PM 39.1156 -75.6292 36° Northeast 435 501 27,000  Level Washington Center
01:33PM 39.2133 -75.5328 37° Northeast 435 501 27,000 -600 Level Washington Center
01:34PM 39.3133 -75.4467 34° Northeast 435 501 25,800 -1,560 Descending Washington Center
01:35PM 39.4133 -75.3578 34° Northeast 435 501 24,000 -1,860 Descending Washington Center
01:36PM 39.5089 -75.2714 35° Northeast 430 495 22,200 -1,740 Descending Washington Center
01:37PM 39.6025 -75.1822 36° Northeast 425 489 20,500 -1,740 Descending Washington Center
01:38PM 39.6958 -75.1008 34° Northeast 415 478 18,700 -1,920 Descending Washington Center
01:39PM 39.7956 -75.0136 34° Northeast 406 467 16,800 -2,040 Descending Washington Center
01:40PM 39.8847 -74.9344 34° Northeast 391 450 14,700 -1,860 Descending Washington Center
01:41PM 39.9833 -74.8167 42° Northeast 378 435 12,600 -1,680 Descending New York TRACON
01:42PM 40.0500 -74.7167 49° Northeast 372 428 11,000 -1,320 Descending New York TRACON
01:43PM 40.1167 -74.6167 49° Northeast 353 406 10,000 -540 Descending New York TRACON
01:44PM 40.1833 -74.5167 49° Northeast 363 418 10,000  Level New York TRACON
01:45PM 40.2500 -74.4333 44° Northeast 359 413 10,000  Level New York TRACON
01:46PM 40.3167 -74.3500 44° Northeast 327 376 10,000 -720 Level New York TRACON
01:47PM 40.3833 -74.2667 44° Northeast 280 322 8,600 -1,500 Descending New York TRACON
01:48PM 40.4333 -74.2000 45° Northeast 274 315 7,000 -1,200 Descending New York TRACON
01:49PM 40.4833 -74.1333 45° Northeast 268 308 6,200 -1,320 Descending New York TRACON
01:50PM 40.5500 -74.0667 37° Northeast 265 305 4,400 -1,380 Descending New York TRACON
01:51PM 40.6167 -74.0167 30° Northeast 253 291 3,400 -960 Descending New York TRACON
01:52PM 40.6667 -73.9667 37° Northeast 218 251 2,400 -1,020 Descending New York TRACON